Time;durP1;ratioP1;P1;durP2;ratioP2;P2;SDS_P1;SDS_P2;PMS_P1;PMS_P2;Temp;Humidity;BMP_temperature;BMP_pressure;BME280_temperature;BME280_humidity;BME280_pressure;Samples;Min_cycle;Max_cycle;Signal;HPM_P1;HPM_P2
2022/05/27 00:01:31;;;;;;;7.03;3.93;;;;;;;;;;5052663;28;20212;-54
2022/05/27 00:03:59;;;;;;;8.33;3.83;;;;;;;;;;5054354;28;20211;-54
2022/05/27 00:06:25;;;;;;;10.93;3.93;;;;;;;;;;5054509;28;20275;-54
2022/05/27 00:08:51;;;;;;;7.57;3.27;;;;;;;;;;5054212;28;20219;-54
2022/05/27 00:11:17;;;;;;;10.20;4.30;;;;;;;;;;5054506;28;20210;-54
2022/05/27 00:13:43;;;;;;;6.83;3.67;;;;;;;;;;5054573;28;20246;-54
2022/05/27 00:16:10;;;;;;;9.83;3.90;;;;;;;;;;5054151;28;20232;-54
2022/05/27 00:18:37;;;;;;;8.00;3.70;;;;;;;;;;5054213;28;20200;-54
2022/05/27 00:21:04;;;;;;;7.43;3.33;;;;;;;;;;5054256;28;20201;-54
2022/05/27 00:26:14;;;;;;;7.07;3.80;;;;;;;;;;6061968;23;20188;-54
2022/05/27 00:28:40;;;;;;;6.10;3.43;;;;;;;;;;4971620;28;20230;-54
2022/05/27 00:31:06;;;;;;;7.23;4.00;;;;;;;;;;4975200;28;20648;-54
2022/05/27 00:33:33;;;;;;;7.80;3.60;;;;;;;;;;4975110;28;20211;-54
2022/05/27 00:36:00;;;;;;;5.60;3.23;;;;;;;;;;4975147;28;20682;-54
2022/05/27 00:38:26;;;;;;;8.13;4.37;;;;;;;;;;4974987;28;20207;-54
2022/05/27 00:40:53;;;;;;;9.17;3.73;;;;;;;;;;4975013;28;20688;-54
2022/05/27 00:43:19;;;;;;;5.63;3.67;;;;;;;;;;4974777;28;20281;-54
2022/05/27 00:45:47;;;;;;;6.90;3.60;;;;;;;;;;4975059;28;20620;-53
2022/05/27 00:48:14;;;;;;;7.53;3.60;;;;;;;;;;4974864;28;20652;-53
2022/05/27 00:50:42;;;;;;;7.60;3.60;;;;;;;;;;4974919;28;20290;-53
2022/05/27 00:53:10;;;;;;;7.47;2.97;;;;;;;;;;4974849;28;20293;-53
2022/05/27 00:55:38;;;;;;;8.50;3.87;;;;;;;;;;4974658;28;20614;-54
2022/05/27 00:58:07;;;;;;;9.20;4.07;;;;;;;;;;4974819;28;20199;-54
2022/05/27 01:00:33;;;;;;;9.10;4.30;;;;;;;;;;4974583;28;20207;-54
2022/05/27 01:03:00;;;;;;;8.33;4.30;;;;;;;;;;4974465;28;20227;-54
2022/05/27 01:05:26;;;;;;;8.77;4.30;;;;;;;;;;4972870;28;20207;-54
2022/05/27 01:07:53;;;;;;;9.80;4.50;;;;;;;;;;4974949;28;20205;-54
2022/05/27 01:10:21;;;;;;;9.20;4.43;;;;;;;;;;4974673;28;20218;-54
2022/05/27 01:12:54;;;;;;;9.63;4.93;;;;;;;;;;4974871;28;20203;-55
2022/05/27 01:15:24;;;;;;;7.27;4.53;;;;;;;;;;4974720;28;20203;-55
2022/05/27 01:17:55;;;;;;;9.23;4.30;;;;;;;;;;4974670;28;20195;-55
2022/05/27 01:20:24;;;;;;;6.37;4.33;;;;;;;;;;4973964;28;20206;-55
2022/05/27 01:22:59;;;;;;;7.77;4.10;;;;;;;;;;4974498;28;20277;-55
2022/05/27 01:25:56;;;;;;;5.70;3.57;;;;;;;;;;4974211;28;20718;-55
2022/05/27 01:28:35;;;;;;;6.17;3.83;;;;;;;;;;4973718;28;20238;-55
2022/05/27 01:31:09;;;;;;;5.23;3.83;;;;;;;;;;4974487;28;20202;-55
2022/05/27 01:33:39;;;;;;;6.50;3.50;;;;;;;;;;4974167;28;20194;-56
2022/05/27 01:36:08;;;;;;;5.67;2.63;;;;;;;;;;4974141;28;20202;-54
2022/05/27 01:38:41;;;;;;;4.97;2.97;;;;;;;;;;4974064;28;20195;-54
2022/05/27 01:41:09;;;;;;;5.73;2.90;;;;;;;;;;4974118;28;20205;-57
2022/05/27 01:43:39;;;;;;;3.90;2.60;;;;;;;;;;4973921;28;20322;-56
2022/05/27 01:46:08;;;;;;;3.70;2.67;;;;;;;;;;4974030;28;20672;-57
2022/05/27 01:48:36;;;;;;;4.57;2.60;;;;;;;;;;4973991;28;20207;-57
2022/05/27 01:51:05;;;;;;;3.63;2.57;;;;;;;;;;4974032;28;20696;-56
2022/05/27 01:53:35;;;;;;;3.20;2.33;;;;;;;;;;4973886;28;20209;-54
2022/05/27 01:56:04;;;;;;;3.67;2.47;;;;;;;;;;4973961;28;20281;-54
2022/05/27 01:58:34;;;;;;;3.00;2.27;;;;;;;;;;4973800;28;20207;-53
2022/05/27 02:01:00;;;;;;;2.03;1.83;;;;;;;;;;4973911;28;20210;-53
2022/05/27 02:03:31;;;;;;;2.90;2.07;;;;;;;;;;4973569;28;20234;-53
2022/05/27 02:05:59;;;;;;;2.50;1.77;;;;;;;;;;4973841;28;20229;-54
2022/05/27 02:08:28;;;;;;;2.80;1.90;;;;;;;;;;4973613;28;20546;-54
2022/05/27 02:10:55;;;;;;;2.63;1.90;;;;;;;;;;4973541;28;20187;-54
2022/05/27 02:13:25;;;;;;;2.10;1.57;;;;;;;;;;4973532;28;20677;-54
2022/05/27 02:15:52;;;;;;;1.80;1.47;;;;;;;;;;4973608;28;20198;-54
2022/05/27 02:18:21;;;;;;;1.97;1.47;;;;;;;;;;4973573;28;20665;-54
2022/05/27 02:20:50;;;;;;;2.63;1.80;;;;;;;;;;4973596;28;20216;-55
2022/05/27 02:23:19;;;;;;;2.63;1.80;;;;;;;;;;4973495;28;20293;-57
2022/05/27 02:25:46;;;;;;;5.87;1.50;;;;;;;;;;4973318;28;20223;-57
2022/05/27 02:28:14;;;;;;;2.30;1.50;;;;;;;;;;4973362;28;20262;-55
2022/05/27 02:30:41;;;;;;;4.50;1.67;;;;;;;;;;4972993;28;20211;-55
2022/05/27 02:35:56;;;;;;;2.97;1.90;;;;;;;;;;4973302;28;20198;-54
2022/05/27 02:38:22;;;;;;;4.00;1.70;;;;;;;;;;4971466;28;20293;-54
2022/05/27 02:40:59;;;;;;;3.10;2.10;;;;;;;;;;4973383;28;20571;-54
2022/05/27 02:43:30;;;;;;;3.70;2.50;;;;;;;;;;4971453;28;20234;-54
2022/05/27 02:46:00;;;;;;;3.33;2.27;;;;;;;;;;4971562;28;20297;-53
2022/05/27 02:48:29;;;;;;;3.50;2.60;;;;;;;;;;4973076;28;20191;-53
2022/05/27 02:50:59;;;;;;;2.83;2.30;;;;;;;;;;4973150;28;20258;-53
2022/05/27 02:53:28;;;;;;;3.47;2.70;;;;;;;;;;4973032;28;20203;-54
2022/05/27 02:55:59;;;;;;;4.20;2.53;;;;;;;;;;4972960;28;20199;-54
2022/05/27 02:58:25;;;;;;;2.80;2.27;;;;;;;;;;4973034;28;20198;-54
2022/05/27 03:00:51;;;;;;;3.23;2.67;;;;;;;;;;4972970;28;20609;-54
2022/05/27 03:03:17;;;;;;;4.83;2.83;;;;;;;;;;4972900;28;20227;-54
2022/05/27 03:05:48;;;;;;;3.47;2.57;;;;;;;;;;4972589;28;20195;-54
2022/05/27 03:08:18;;;;;;;3.30;2.83;;;;;;;;;;4973101;28;20210;-54
2022/05/27 03:10:53;;;;;;;4.60;2.83;;;;;;;;;;4972991;28;20216;-54
2022/05/27 03:13:26;;;;;;;4.90;2.73;;;;;;;;;;4973042;28;20202;-54
2022/05/27 03:16:00;;;;;;;3.73;3.10;;;;;;;;;;4973030;28;20235;-54
2022/05/27 03:18:30;;;;;;;4.03;2.63;;;;;;;;;;4972831;28;20246;-54
2022/05/27 03:21:03;;;;;;;3.87;2.97;;;;;;;;;;4972910;28;20683;-54
2022/05/27 03:23:40;;;;;;;4.70;3.10;;;;;;;;;;4972783;28;20231;-54
2022/05/27 03:26:10;;;;;;;4.93;3.00;;;;;;;;;;4972810;28;20226;-54
2022/05/27 03:28:40;;;;;;;4.07;3.10;;;;;;;;;;4972586;28;20675;-55
2022/05/27 03:31:12;;;;;;;5.83;3.50;;;;;;;;;;4972783;28;20249;-54
2022/05/27 03:33:44;;;;;;;4.83;3.23;;;;;;;;;;4972684;28;20199;-53
2022/05/27 03:36:13;;;;;;;4.57;3.40;;;;;;;;;;4972706;28;20203;-53
2022/05/27 03:38:44;;;;;;;5.23;3.70;;;;;;;;;;4972448;28;20202;-53
2022/05/27 03:41:11;;;;;;;3.77;3.40;;;;;;;;;;4972618;28;20254;-54
2022/05/27 03:43:37;;;;;;;4.20;3.40;;;;;;;;;;4974280;28;20231;-54
2022/05/27 03:46:04;;;;;;;8.00;3.60;;;;;;;;;;4976323;28;20203;-53
2022/05/27 03:48:31;;;;;;;3.80;3.00;;;;;;;;;;4976097;28;20203;-54
2022/05/27 03:50:58;;;;;;;6.00;3.37;;;;;;;;;;4976176;28;20285;-53
2022/05/27 03:56:10;;;;;;;4.93;3.47;;;;;;;;;;4976038;28;20218;-53
2022/05/27 03:58:36;;;;;;;4.70;3.30;;;;;;;;;;4975946;28;20203;-54
2022/05/27 04:01:02;;;;;;;5.53;3.70;;;;;;;;;;4976057;28;20203;-55
2022/05/27 04:03:28;;;;;;;3.53;3.23;;;;;;;;;;4975759;28;20235;-54
2022/05/27 04:05:54;;;;;;;3.53;3.20;;;;;;;;;;4975878;28;20215;-54
2022/05/27 04:08:20;;;;;;;6.90;3.43;;;;;;;;;;4975845;28;20695;-54
2022/05/27 04:10:46;;;;;;;6.53;3.37;;;;;;;;;;4974105;28;20211;-54
2022/05/27 04:13:13;;;;;;;7.40;3.70;;;;;;;;;;4975602;28;20254;-53
2022/05/27 04:15:39;;;;;;;7.20;4.33;;;;;;;;;;4975643;28;20203;-55
2022/05/27 04:18:05;;;;;;;5.57;3.83;;;;;;;;;;4975728;28;20601;-54
2022/05/27 04:20:31;;;;;;;4.67;3.87;;;;;;;;;;4975583;28;20325;-54
2022/05/27 04:22:57;;;;;;;6.13;4.00;;;;;;;;;;4975575;28;20231;-54
2022/05/27 04:25:23;;;;;;;5.90;3.77;;;;;;;;;;4975286;28;20654;-54
2022/05/27 04:27:49;;;;;;;6.43;3.97;;;;;;;;;;4975243;28;20708;-53
2022/05/27 04:30:17;;;;;;;8.17;4.20;;;;;;;;;;4975355;28;20567;-54
2022/05/27 04:32:43;;;;;;;10.97;4.27;;;;;;;;;;4975279;28;20245;-54
2022/05/27 04:35:10;;;;;;;9.17;4.07;;;;;;;;;;4975346;28;20537;-55
2022/05/27 04:37:36;;;;;;;7.23;4.20;;;;;;;;;;4975272;28;20302;-54
2022/05/27 04:40:03;;;;;;;5.57;3.90;;;;;;;;;;4975357;28;20290;-54
2022/05/27 04:42:29;;;;;;;9.10;4.03;;;;;;;;;;4975098;28;20235;-54
2022/05/27 04:44:55;;;;;;;5.70;3.43;;;;;;;;;;4975126;28;20206;-54
2022/05/27 04:47:22;;;;;;;6.23;3.87;;;;;;;;;;4975073;28;20214;-54
2022/05/27 04:49:51;;;;;;;8.87;3.60;;;;;;;;;;4975083;28;20234;-54
2022/05/27 04:52:18;;;;;;;12.90;4.37;;;;;;;;;;4975132;28;20274;-54
2022/05/27 04:54:44;;;;;;;7.63;3.63;;;;;;;;;;4974088;28;20669;-54
2022/05/27 04:57:12;;;;;;;5.73;3.03;;;;;;;;;;4975115;28;20253;-54
2022/05/27 04:59:39;;;;;;;8.00;3.20;;;;;;;;;;4974884;28;20226;-54
2022/05/27 05:02:05;;;;;;;13.57;4.63;;;;;;;;;;4975032;28;20237;-54
2022/05/27 05:04:33;;;;;;;7.87;3.67;;;;;;;;;;4974919;28;20207;-54
2022/05/27 05:07:01;;;;;;;7.27;3.20;;;;;;;;;;4974794;28;20282;-54
2022/05/27 05:09:28;;;;;;;6.80;4.03;;;;;;;;;;4974764;28;20257;-55
2022/05/27 05:11:53;;;;;;;8.03;3.50;;;;;;;;;;4974617;28;20199;-55
2022/05/27 05:14:19;;;;;;;9.43;3.77;;;;;;;;;;4974755;28;20207;-54
2022/05/27 05:16:45;;;;;;;10.73;3.67;;;;;;;;;;4974681;28;20606;-54
2022/05/27 05:19:11;;;;;;;8.20;3.70;;;;;;;;;;4974640;28;20290;-54
2022/05/27 05:21:39;;;;;;;12.27;3.67;;;;;;;;;;4974481;28;20245;-54
2022/05/27 05:24:05;;;;;;;9.63;3.67;;;;;;;;;;4974495;28;20203;-54
2022/05/27 05:26:31;;;;;;;5.87;3.23;;;;;;;;;;4974313;28;20257;-54
2022/05/27 05:28:57;;;;;;;8.33;3.53;;;;;;;;;;4974391;28;20270;-54
2022/05/27 05:31:23;;;;;;;9.73;3.47;;;;;;;;;;4974342;28;20211;-55
2022/05/27 05:33:49;;;;;;;8.60;3.80;;;;;;;;;;4974323;28;20680;-55
2022/05/27 05:36:15;;;;;;;7.27;3.37;;;;;;;;;;4974402;28;20206;-55
2022/05/27 05:38:42;;;;;;;9.10;3.60;;;;;;;;;;4974072;28;20209;-54
2022/05/27 05:41:09;;;;;;;5.23;3.00;;;;;;;;;;4974293;28;20203;-55
2022/05/27 05:43:35;;;;;;;5.93;3.27;;;;;;;;;;4974098;28;20709;-55
2022/05/27 05:46:01;;;;;;;8.43;4.10;;;;;;;;;;4974270;28;20202;-54
2022/05/27 05:48:27;;;;;;;9.67;4.10;;;;;;;;;;4974106;28;20210;-55
2022/05/27 05:50:52;;;;;;;7.10;3.50;;;;;;;;;;4973904;28;20195;-54
2022/05/27 05:53:19;;;;;;;6.03;3.20;;;;;;;;;;4973645;28;20203;-55
2022/05/27 05:55:46;;;;;;;5.30;2.83;;;;;;;;;;4973915;28;20206;-55
2022/05/27 05:58:12;;;;;;;7.43;3.30;;;;;;;;;;4973894;28;20218;-54
2022/05/27 06:00:38;;;;;;;6.13;3.23;;;;;;;;;;4973751;28;20202;-54
2022/05/27 06:03:04;;;;;;;9.00;3.37;;;;;;;;;;4973792;28;20330;-55
2022/05/27 06:05:30;;;;;;;7.27;3.00;;;;;;;;;;4973709;28;20202;-55
2022/05/27 06:07:56;;;;;;;8.80;2.90;;;;;;;;;;4973709;28;20195;-55
2022/05/27 06:10:22;;;;;;;7.07;2.87;;;;;;;;;;4973543;28;20693;-54
2022/05/27 06:12:50;;;;;;;7.07;2.33;;;;;;;;;;4973554;28;20195;-55
2022/05/27 06:15:16;;;;;;;8.47;2.70;;;;;;;;;;4973785;28;20210;-55
2022/05/27 06:17:42;;;;;;;7.47;2.63;;;;;;;;;;4973193;28;20198;-55
2022/05/27 06:20:08;;;;;;;9.10;3.00;;;;;;;;;;4973455;28;20206;-55
2022/05/27 06:22:35;;;;;;;8.00;2.70;;;;;;;;;;4973213;28;20317;-54
2022/05/27 06:25:01;;;;;;;9.27;3.67;;;;;;;;;;4973347;28;20227;-54
2022/05/27 06:27:28;;;;;;;6.13;2.90;;;;;;;;;;4973337;28;20230;-55
2022/05/27 06:35:24;;;;;;;6.30;2.60;;;;;;;;;;4973267;28;20817;-55
2022/05/27 06:37:50;;;;;;;7.83;3.57;;;;;;;;;;4973222;28;20226;-55
2022/05/27 06:40:16;;;;;;;6.20;3.27;;;;;;;;;;4973397;28;20740;-54
2022/05/27 06:42:42;;;;;;;10.73;3.50;;;;;;;;;;4973061;28;20234;-54
2022/05/27 06:45:11;;;;;;;7.33;3.50;;;;;;;;;;4973254;28;20246;-54
2022/05/27 06:47:37;;;;;;;8.00;3.10;;;;;;;;;;4973164;28;20210;-54
2022/05/27 06:50:04;;;;;;;8.80;3.40;;;;;;;;;;4973000;28;20218;-55
2022/05/27 06:52:30;;;;;;;11.07;3.07;;;;;;;;;;4972963;28;20226;-54
2022/05/27 06:54:56;;;;;;;8.13;3.17;;;;;;;;;;4972854;28;20226;-54
2022/05/27 06:57:22;;;;;;;10.63;2.67;;;;;;;;;;4973030;28;20214;-55
2022/05/27 06:59:48;;;;;;;7.30;2.90;;;;;;;;;;4973062;28;20688;-54
2022/05/27 07:02:15;;;;;;;11.00;2.90;;;;;;;;;;4973115;28;20262;-54
2022/05/27 07:04:41;;;;;;;10.23;3.20;;;;;;;;;;4973027;28;20218;-54
2022/05/27 07:07:07;;;;;;;6.57;2.67;;;;;;;;;;4973094;28;20199;-54
2022/05/27 07:09:37;;;;;;;5.77;2.70;;;;;;;;;;4973005;28;20198;-54
2022/05/27 07:12:05;;;;;;;8.33;2.93;;;;;;;;;;4972789;28;20203;-54
2022/05/27 07:14:30;;;;;;;10.30;2.70;;;;;;;;;;4973033;28;20764;-54
2022/05/27 07:16:56;;;;;;;5.73;2.23;;;;;;;;;;4972773;28;20281;-54
2022/05/27 07:19:24;;;;;;;10.07;3.17;;;;;;;;;;4976070;28;20317;-54
2022/05/27 07:21:52;;;;;;;6.57;2.37;;;;;;;;;;4976484;28;20223;-54
2022/05/27 07:24:18;;;;;;;6.83;2.67;;;;;;;;;;4976735;28;20254;-54
2022/05/27 07:26:46;;;;;;;9.40;2.80;;;;;;;;;;4976412;28;20242;-54
2022/05/27 07:29:12;;;;;;;7.63;2.70;;;;;;;;;;4976627;28;20658;-54
2022/05/27 07:31:39;;;;;;;5.23;2.50;;;;;;;;;;4976457;28;20257;-53
2022/05/27 07:34:06;;;;;;;7.03;2.40;;;;;;;;;;4976232;28;20555;-54
2022/05/27 07:36:33;;;;;;;7.67;2.67;;;;;;;;;;4976580;28;20293;-54
2022/05/27 07:38:59;;;;;;;7.50;2.47;;;;;;;;;;4976317;28;20207;-54
2022/05/27 07:41:30;;;;;;;7.97;2.60;;;;;;;;;;4976311;28;20208;-53
2022/05/27 07:43:59;;;;;;;12.33;2.87;;;;;;;;;;4976250;28;20701;-54
2022/05/27 07:46:25;;;;;;;8.57;2.20;;;;;;;;;;4976366;28;20234;-53
2022/05/27 07:48:51;;;;;;;6.87;2.47;;;;;;;;;;4976104;28;20568;-54
2022/05/27 07:51:17;;;;;;;5.90;2.40;;;;;;;;;;4976371;28;20210;-53
2022/05/27 07:53:44;;;;;;;9.00;2.70;;;;;;;;;;4975629;28;20254;-54
2022/05/27 07:56:11;;;;;;;6.47;2.37;;;;;;;;;;4976089;28;20680;-54
2022/05/27 07:58:37;;;;;;;7.40;2.50;;;;;;;;;;4976105;28;20202;-54
2022/05/27 08:01:03;;;;;;;5.33;2.07;;;;;;;;;;4976017;28;20194;-54
2022/05/27 08:03:29;;;;;;;10.47;2.77;;;;;;;;;;4975853;28;20227;-54
2022/05/27 08:05:55;;;;;;;5.40;2.53;;;;;;;;;;4975917;28;20206;-54
2022/05/27 08:08:22;;;;;;;6.13;2.30;;;;;;;;;;4975869;28;20606;-54
2022/05/27 08:10:49;;;;;;;11.17;2.53;;;;;;;;;;4975840;28;20563;-54
2022/05/27 08:13:15;;;;;;;6.00;2.50;;;;;;;;;;4975979;28;20222;-54
2022/05/27 08:15:42;;;;;;;7.63;2.50;;;;;;;;;;4975545;28;20634;-54
2022/05/27 08:18:09;;;;;;;6.23;2.20;;;;;;;;;;4975586;28;20210;-54
2022/05/27 08:20:35;;;;;;;8.00;2.67;;;;;;;;;;4975459;28;20705;-54
2022/05/27 08:23:02;;;;;;;5.83;2.30;;;;;;;;;;4975179;28;20221;-54
2022/05/27 08:25:28;;;;;;;7.20;2.70;;;;;;;;;;4975584;28;20220;-57
2022/05/27 08:27:56;;;;;;;6.00;2.10;;;;;;;;;;4975284;28;20258;-57
2022/05/27 08:30:24;;;;;;;5.77;2.07;;;;;;;;;;4974088;28;20221;-56
2022/05/27 08:32:50;;;;;;;7.80;2.60;;;;;;;;;;4975247;28;20244;-52
2022/05/27 08:38:07;;;;;;;8.07;2.30;;;;;;;;;;4975408;28;20284;-53
2022/05/27 08:40:51;;;;;;;6.30;2.30;;;;;;;;;;4975436;28;20209;-54
2022/05/27 08:43:23;;;;;;;8.30;2.50;;;;;;;;;;4975398;28;20323;-53
2022/05/27 08:45:54;;;;;;;9.37;3.17;;;;;;;;;;4975303;28;20283;-53
2022/05/27 08:48:22;;;;;;;7.13;2.43;;;;;;;;;;4975243;28;20206;-54
2022/05/27 08:50:50;;;;;;;7.90;2.23;;;;;;;;;;4975210;28;20272;-54
2022/05/27 08:53:18;;;;;;;7.83;2.50;;;;;;;;;;4994397;28;20678;-54
2022/05/27 09:01:21;;;;;;;8.10;2.57;;;;;;;;;;4994170;28;20200;-54
2022/05/27 09:03:49;;;;;;;8.87;2.33;;;;;;;;;;4993682;28;20684;-55
2022/05/27 09:06:18;;;;;;;3.57;1.93;;;;;;;;;;4993905;28;20211;-55
2022/05/27 09:08:44;;;;;;;6.90;2.23;;;;;;;;;;4993963;28;20205;-55
2022/05/27 09:11:17;;;;;;;7.27;2.37;;;;;;;;;;4993995;28;20807;-55
2022/05/27 09:13:48;;;;;;;7.27;2.07;;;;;;;;;;4994097;28;20197;-55
2022/05/27 09:16:21;;;;;;;6.40;2.13;;;;;;;;;;4993997;28;20213;-55
2022/05/27 09:18:49;;;;;;;9.37;2.87;;;;;;;;;;4994010;28;20209;-55
2022/05/27 09:21:19;;;;;;;6.27;2.30;;;;;;;;;;4993684;28;20206;-55
2022/05/27 09:23:50;;;;;;;4.93;2.20;;;;;;;;;;4993660;28;20697;-55
2022/05/27 09:26:21;;;;;;;7.20;2.50;;;;;;;;;;4993569;28;20222;-55
2022/05/27 09:28:54;;;;;;;7.47;2.30;;;;;;;;;;4993880;28;20580;-55
2022/05/27 09:31:26;;;;;;;7.63;2.50;;;;;;;;;;4993894;28;20206;-55
2022/05/27 09:33:53;;;;;;;7.47;2.70;;;;;;;;;;4993401;28;20675;-55
2022/05/27 09:36:22;;;;;;;6.13;2.43;;;;;;;;;;4993504;28;20201;-54
2022/05/27 09:38:51;;;;;;;8.57;2.30;;;;;;;;;;4993548;28;20202;-55
2022/05/27 09:41:24;;;;;;;8.47;2.43;;;;;;;;;;4992878;28;20200;-55
2022/05/27 09:43:54;;;;;;;8.37;2.80;;;;;;;;;;4993159;28;20252;-54
2022/05/27 09:46:25;;;;;;;5.93;2.20;;;;;;;;;;4993145;28;20218;-55
2022/05/27 09:48:51;;;;;;;6.10;2.30;;;;;;;;;;4992908;28;20208;-55
2022/05/27 09:51:18;;;;;;;6.60;2.30;;;;;;;;;;4992913;28;20287;-55
2022/05/27 09:53:45;;;;;;;8.67;2.80;;;;;;;;;;4993063;28;20298;-55
2022/05/27 09:56:13;;;;;;;6.43;2.40;;;;;;;;;;4992739;28;20247;-54
2022/05/27 09:58:40;;;;;;;6.13;2.70;;;;;;;;;;4992729;28;20624;-55
2022/05/27 10:01:21;;;;;;;7.63;2.60;;;;;;;;;;4992752;28;20212;-55
2022/05/27 10:03:58;;;;;;;5.83;2.30;;;;;;;;;;4992905;28;20702;-55
2022/05/27 10:06:26;;;;;;;6.20;2.17;;;;;;;;;;4992667;28;20229;-55
2022/05/27 10:08:53;;;;;;;5.30;2.07;;;;;;;;;;4992741;28;20206;-55
2022/05/27 10:11:21;;;;;;;5.50;2.70;;;;;;;;;;4992705;28;20208;-55
2022/05/27 10:13:48;;;;;;;9.10;2.40;;;;;;;;;;4992683;28;20652;-58
2022/05/27 10:16:15;;;;;;;6.80;2.63;;;;;;;;;;4992521;28;20240;-55
2022/05/27 10:18:44;;;;;;;7.30;2.40;;;;;;;;;;4992892;28;20276;-55
2022/05/27 10:21:13;;;;;;;6.50;2.50;;;;;;;;;;4992798;28;20214;-55
2022/05/27 10:23:40;;;;;;;7.27;2.50;;;;;;;;;;4992671;28;20455;-55
2022/05/27 10:26:19;;;;;;;5.70;2.40;;;;;;;;;;4992573;28;20247;-55
2022/05/27 10:28:45;;;;;;;6.37;2.50;;;;;;;;;;4992754;28;20241;-55
2022/05/27 10:31:15;;;;;;;5.73;2.37;;;;;;;;;;4992407;28;20202;-55
2022/05/27 10:33:44;;;;;;;6.23;2.60;;;;;;;;;;4992522;28;20197;-55
2022/05/27 10:36:24;;;;;;;6.57;2.63;;;;;;;;;;4992436;28;20216;-56
2022/05/27 10:38:52;;;;;;;5.33;2.43;;;;;;;;;;4992628;28;20220;-55
2022/05/27 10:41:22;;;;;;;5.87;2.60;;;;;;;;;;4992549;28;20682;-55
2022/05/27 10:43:55;;;;;;;5.87;2.70;;;;;;;;;;4992343;28;20704;-56
2022/05/27 10:46:22;;;;;;;8.37;2.73;;;;;;;;;;4992354;28;20232;-56
2022/05/27 10:49:05;;;;;;;6.90;2.43;;;;;;;;;;4992326;28;20212;-55
2022/05/27 10:51:36;;;;;;;5.90;2.27;;;;;;;;;;4992651;28;20285;-55
2022/05/27 10:54:11;;;;;;;5.33;2.77;;;;;;;;;;4991570;28;20206;-55
2022/05/27 10:56:41;;;;;;;5.63;2.40;;;;;;;;;;4992485;28;20547;-56
2022/05/27 11:02:07;;;;;;;6.47;2.20;;;;;;;;;;4984552;28;20205;-54
2022/05/27 11:04:54;;;;;;;5.43;2.50;;;;;;;;;;4992537;28;20198;-54
2022/05/27 11:07:24;;;;;;;5.87;2.63;;;;;;;;;;4990453;28;20209;-54
2022/05/27 11:09:55;;;;;;;7.87;2.17;;;;;;;;;;4992276;28;20225;-53
2022/05/27 11:15:10;;;;;;;7.33;2.30;;;;;;;;;;4992306;28;20690;-54
2022/05/27 11:15:24;;;;;;;10.27;2.50;;;;;;;;;;4992261;28;20202;-54
2022/05/27 11:17:55;;;;;;;7.03;2.20;;;;;;;;;;4992237;28;20205;-54
2022/05/27 11:20:41;;;;;;;5.47;2.23;;;;;;;;;;4992306;28;20241;-54
2022/05/27 11:23:16;;;;;;;4.87;1.90;;;;;;;;;;4992125;28;20226;-54
2022/05/27 11:25:47;;;;;;;4.27;2.00;;;;;;;;;;4991945;28;20261;-55
2022/05/27 11:28:32;;;;;;;4.67;2.03;;;;;;;;;;4991747;28;20252;-54
2022/05/27 11:31:03;;;;;;;6.40;2.73;;;;;;;;;;4991834;28;20660;-58
2022/05/27 11:33:39;;;;;;;7.03;2.30;;;;;;;;;;4992116;28;20199;-55
2022/05/27 11:36:19;;;;;;;9.07;2.27;;;;;;;;;;4991664;28;20566;-55
2022/05/27 11:38:53;;;;;;;5.63;1.90;;;;;;;;;;4990777;28;20230;-55
2022/05/27 11:41:24;;;;;;;5.33;2.23;;;;;;;;;;4991722;28;20221;-55
2022/05/27 11:43:53;;;;;;;6.60;2.40;;;;;;;;;;4991588;28;20237;-55
2022/05/27 11:46:25;;;;;;;6.37;2.37;;;;;;;;;;4991738;28;20202;-55
2022/05/27 11:48:53;;;;;;;7.10;2.20;;;;;;;;;;4991562;28;20199;-55
2022/05/27 11:51:25;;;;;;;5.30;1.97;;;;;;;;;;4991498;28;20277;-55
2022/05/27 11:54:01;;;;;;;6.80;2.00;;;;;;;;;;4991452;28;20221;-55
2022/05/27 11:56:34;;;;;;;7.13;2.33;;;;;;;;;;4991601;28;20206;-55
2022/05/27 11:59:00;;;;;;;10.07;2.07;;;;;;;;;;4991669;28;20209;-55
2022/05/27 12:01:30;;;;;;;6.77;2.27;;;;;;;;;;4991531;28;20199;-56
2022/05/27 12:04:01;;;;;;;7.40;2.23;;;;;;;;;;4991976;28;20232;-55
2022/05/27 12:06:32;;;;;;;13.90;2.90;;;;;;;;;;4995110;28;20292;-55
2022/05/27 12:09:01;;;;;;;6.47;2.60;;;;;;;;;;4995225;28;20729;-56
2022/05/27 12:11:29;;;;;;;5.63;1.90;;;;;;;;;;4995202;28;20199;-56
2022/05/27 12:13:57;;;;;;;6.45;2.60;;;;;;;;;;4993771;28;20504;-56
2022/05/27 12:16:27;;;;;;;8.97;2.73;;;;;;;;;;4994879;28;20212;-56
2022/05/27 12:18:56;;;;;;;10.60;3.00;;;;;;;;;;4994763;28;20201;-56
2022/05/27 12:21:24;;;;;;;9.50;2.57;;;;;;;;;;4994969;28;20314;-56
2022/05/27 12:23:54;;;;;;;6.97;2.60;;;;;;;;;;4995068;28;20273;-56
2022/05/27 12:26:22;;;;;;;7.13;2.17;;;;;;;;;;4994900;28;20282;-55
2022/05/27 12:28:48;;;;;;;5.03;1.90;;;;;;;;;;4956372;28;20255;-55
2022/05/27 12:31:15;;;;;;;6.40;2.00;;;;;;;;;;4956251;28;20210;-55
2022/05/27 12:33:41;;;;;;;9.20;2.23;;;;;;;;;;4956281;28;20199;-55
2022/05/27 12:36:12;;;;;;;6.60;2.03;;;;;;;;;;4956211;28;20922;-55
2022/05/27 12:38:43;;;;;;;5.43;2.07;;;;;;;;;;4956085;28;20203;-55
2022/05/27 12:41:12;;;;;;;7.30;2.23;;;;;;;;;;4955999;28;20210;-55
2022/05/27 12:43:39;;;;;;;6.63;1.90;;;;;;;;;;4955641;28;20314;-55
2022/05/27 12:46:19;;;;;;;4.30;2.20;;;;;;;;;;4955923;28;20246;-55
2022/05/27 12:48:46;;;;;;;5.47;2.13;;;;;;;;;;4955876;28;20662;-54
2022/05/27 12:51:26;;;;;;;6.27;2.53;;;;;;;;;;4955558;28;20658;-55
2022/05/27 12:53:53;;;;;;;5.90;2.67;;;;;;;;;;4955530;29;20298;-55
2022/05/27 13:02:52;;;;;;;4.23;1.90;;;;;;;;;;4943493;28;20322;-55
2022/05/27 13:05:20;;;;;;;4.80;2.03;;;;;;;;;;4953914;28;20211;-55
2022/05/27 13:07:48;;;;;;;7.17;1.97;;;;;;;;;;4955567;28;20242;-55
2022/05/27 13:10:34;;;;;;;6.10;2.40;;;;;;;;;;4955477;28;20207;-55
2022/05/27 13:13:01;;;;;;;5.00;1.87;;;;;;;;;;4955538;28;20211;-55
2022/05/27 13:15:31;;;;;;;6.50;2.03;;;;;;;;;;4954823;28;20246;-56
2022/05/27 13:18:09;;;;;;;4.37;1.77;;;;;;;;;;4955190;28;20361;-56
2022/05/27 13:20:51;;;;;;;6.93;1.83;;;;;;;;;;4955139;28;20227;-56
2022/05/27 13:23:18;;;;;;;4.83;1.80;;;;;;;;;;4955269;28;20223;-56
2022/05/27 13:25:49;;;;;;;7.93;2.60;;;;;;;;;;4954847;28;20713;-56
2022/05/27 13:28:26;;;;;;;8.37;1.77;;;;;;;;;;4985450;28;20769;-56
2022/05/27 13:30:56;;;;;;;7.30;1.90;;;;;;;;;;4993705;28;20292;-55
2022/05/27 13:33:26;;;;;;;6.33;1.77;;;;;;;;;;4993538;28;20230;-55
2022/05/27 13:35:52;;;;;;;8.73;1.90;;;;;;;;;;4993621;28;20208;-56
2022/05/27 13:38:20;;;;;;;5.17;1.73;;;;;;;;;;4993680;28;20253;-56
2022/05/27 13:40:47;;;;;;;7.37;1.90;;;;;;;;;;4993686;28;20194;-56
2022/05/27 13:43:17;;;;;;;4.40;2.00;;;;;;;;;;4993445;28;20284;-55
2022/05/27 13:45:46;;;;;;;8.97;1.87;;;;;;;;;;4993737;28;20216;-55
2022/05/27 13:48:14;;;;;;;7.47;2.00;;;;;;;;;;4993472;28;20213;-55
2022/05/27 13:50:42;;;;;;;4.27;1.90;;;;;;;;;;4993578;28;20197;-54
2022/05/27 13:53:19;;;;;;;5.83;1.83;;;;;;;;;;4993371;28;20205;-54
2022/05/27 13:55:45;;;;;;;7.20;1.80;;;;;;;;;;4993553;28;20251;-54
2022/05/27 13:58:11;;;;;;;5.47;1.73;;;;;;;;;;4993074;28;20211;-55
2022/05/27 14:00:39;;;;;;;6.23;2.00;;;;;;;;;;4993363;28;20209;-54
2022/05/27 14:03:06;;;;;;;6.73;1.93;;;;;;;;;;4993100;28;20301;-54
2022/05/27 14:05:33;;;;;;;5.63;1.73;;;;;;;;;;4992995;28;20228;-55
2022/05/27 14:08:01;;;;;;;6.13;2.00;;;;;;;;;;4993105;28;20201;-55
2022/05/27 14:10:28;;;;;;;7.23;1.90;;;;;;;;;;4993004;28;20267;-55
2022/05/27 14:12:55;;;;;;;5.27;2.40;;;;;;;;;;4992500;28;20194;-55
2022/05/27 14:15:24;;;;;;;5.57;1.80;;;;;;;;;;4992952;28;20256;-55
2022/05/27 14:17:51;;;;;;;5.93;2.17;;;;;;;;;;4993095;28;20205;-54
2022/05/27 14:20:25;;;;;;;3.67;2.00;;;;;;;;;;4992945;28;20209;-54
2022/05/27 14:22:52;;;;;;;5.90;1.97;;;;;;;;;;4992892;28;20301;-54
2022/05/27 14:25:22;;;;;;;6.23;2.10;;;;;;;;;;4992581;28;20711;-55
2022/05/27 14:27:49;;;;;;;5.13;2.00;;;;;;;;;;4992659;28;20324;-55
2022/05/27 14:30:18;;;;;;;7.57;2.10;;;;;;;;;;4984918;28;20613;-54
2022/05/27 14:32:44;;;;;;;5.93;2.47;;;;;;;;;;4990635;28;20198;-56
2022/05/27 14:35:13;;;;;;;8.00;2.60;;;;;;;;;;4990946;28;20198;-56
2022/05/27 14:37:43;;;;;;;6.23;2.13;;;;;;;;;;4992441;28;20284;-55
2022/05/27 14:40:11;;;;;;;7.23;2.00;;;;;;;;;;4992459;28;20252;-55
2022/05/27 14:42:38;;;;;;;6.37;2.20;;;;;;;;;;4992486;28;20672;-56
2022/05/27 14:45:11;;;;;;;6.20;2.30;;;;;;;;;;4992615;28;20204;-57
2022/05/27 14:47:37;;;;;;;4.73;2.07;;;;;;;;;;4992332;28;20580;-54
2022/05/27 14:50:14;;;;;;;4.67;1.90;;;;;;;;;;4992485;28;20209;-55
2022/05/27 14:52:41;;;;;;;4.93;2.00;;;;;;;;;;4992243;28;20558;-55
2022/05/27 14:55:09;;;;;;;7.87;2.53;;;;;;;;;;4990167;28;20204;-55
2022/05/27 14:57:36;;;;;;;8.53;2.67;;;;;;;;;;4992048;28;20213;-55
2022/05/27 15:00:06;;;;;;;7.47;2.17;;;;;;;;;;4992145;28;20734;-54
2022/05/27 15:02:33;;;;;;;9.27;2.40;;;;;;;;;;4992063;28;20205;-55
2022/05/27 15:05:03;;;;;;;9.63;2.27;;;;;;;;;;4992353;28;20303;-55
2022/05/27 15:07:31;;;;;;;5.17;2.20;;;;;;;;;;4991851;28;20198;-55
2022/05/27 15:09:58;;;;;;;8.07;2.10;;;;;;;;;;4992152;28;20230;-55
2022/05/27 15:12:26;;;;;;;9.67;2.20;;;;;;;;;;4991818;28;20198;-56
2022/05/27 15:14:53;;;;;;;8.70;2.07;;;;;;;;;;4991789;28;20734;-55
2022/05/27 15:17:24;;;;;;;5.07;1.63;;;;;;;;;;4991714;28;20285;-56
2022/05/27 15:19:55;;;;;;;7.53;2.40;;;;;;;;;;4991900;28;20230;-55
2022/05/27 15:22:22;;;;;;;4.90;2.00;;;;;;;;;;4991689;28;20229;-56
2022/05/27 15:24:52;;;;;;;3.50;1.90;;;;;;;;;;4991869;28;20237;-56